Time;durP1;ratioP1;P1;durP2;ratioP2;P2;SDS_P1;SDS_P2;PMS_P1;PMS_P2;Temp;Humidity;BMP_temperature;BMP_pressure;BME280_temperature;BME280_humidity;BME280_pressure;Samples;Min_cycle;Max_cycle;Signal;HPM_P1;HPM_P2
2022/07/06 00:00:07;;;;;;;24.00;16.08;;;;;;;19.18;78.48;99846.06;5012037;28;20050;-81
2022/07/06 00:02:34;;;;;;;21.90;15.15;;;;;;;19.18;78.80;99853.16;5011890;28;20149;-81
2022/07/06 00:05:01;;;;;;;25.65;17.38;;;;;;;19.13;78.59;99848.00;5012019;28;20042;-81
2022/07/06 00:07:30;;;;;;;25.67;19.02;;;;;;;19.15;78.86;99855.91;5011254;28;20168;-81
2022/07/06 00:09:58;;;;;;;24.17;18.25;;;;;;;19.12;79.08;99854.22;5010435;28;20050;-81
2022/07/06 00:12:25;;;;;;;22.77;17.20;;;;;;;19.17;79.16;99857.59;5011772;28;20110;-81
2022/07/06 00:14:52;;;;;;;25.15;19.98;;;;;;;19.15;78.96;99863.84;5011799;28;20057;-81
2022/07/06 00:17:19;;;;;;;27.75;19.77;;;;;;;19.10;79.17;99847.22;5011751;28;20107;-81
2022/07/06 00:19:46;;;;;;;29.27;19.20;;;;;;;18.95;79.59;99819.47;5011539;28;20091;-81
2022/07/06 00:22:13;;;;;;;26.15;19.65;;;;;;;19.11;79.09;99852.47;5011769;28;20060;-81
2022/07/06 00:24:40;;;;;;;26.00;19.40;;;;;;;19.10;79.10;99845.47;5011523;28;20054;-81
2022/07/06 00:27:07;;;;;;;24.80;18.45;;;;;;;19.09;79.19;99837.56;5010356;28;20061;-80
2022/07/06 00:29:34;;;;;;;24.75;18.40;;;;;;;19.12;78.85;99843.63;5011576;28;20050;-80
2022/07/06 00:32:01;;;;;;;24.40;16.83;;;;;;;19.09;78.56;99838.41;5010121;28;20110;-80
2022/07/06 00:34:28;;;;;;;22.67;17.02;;;;;;;19.10;78.88;99834.88;5010834;28;20102;-79
2022/07/06 00:36:56;;;;;;;24.55;17.52;;;;;;;18.99;78.70;99803.47;5011275;28;20484;-80
2022/07/06 00:39:28;;;;;;;23.88;18.38;;;;;;;19.13;78.44;99831.25;5011504;28;20080;-81
2022/07/06 00:41:56;;;;;;;26.50;19.75;;;;;;;19.12;78.45;99829.50;5010356;28;20568;-81
2022/07/06 00:44:24;;;;;;;32.17;23.25;;;;;;;19.00;78.32;99815.75;5010910;28;20461;-81
2022/07/06 00:46:51;;;;;;;35.20;24.35;;;;;;;19.12;78.53;99827.75;5011492;28;20071;-81
2022/07/06 00:52:04;;;;;;;28.15;20.20;;;;;;;19.14;78.33;99843.56;5011565;28;20089;-81
2022/07/06 00:54:32;;;;;;;27.40;20.05;;;;;;;19.08;78.16;99841.13;5011062;28;20149;-81
2022/07/06 00:56:59;;;;;;;25.35;19.08;;;;;;;19.13;78.34;99839.19;5042585;28;20536;-81
2022/07/06 00:59:28;;;;;;;24.65;19.67;;;;;;;19.15;78.09;99835.59;5011665;28;20061;-82
2022/07/06 01:01:55;;;;;;;29.58;20.50;;;;;;;18.99;78.30;99818.44;5042588;28;20107;-82
2022/07/06 01:04:22;;;;;;;28.17;20.65;;;;;;;19.11;78.28;99844.53;5011084;28;20050;-81
2022/07/06 01:06:50;;;;;;;32.63;21.05;;;;;;;19.19;78.04;99834.56;5011595;28;20054;-80
2022/07/06 01:09:17;;;;;;;30.95;20.70;;;;;;;19.21;77.98;99845.13;5011231;28;20088;-80
2022/07/06 01:11:44;;;;;;;26.73;18.98;;;;;;;19.28;77.81;99846.66;5010757;28;20053;-81
2022/07/06 01:14:14;;;;;;;27.23;19.48;;;;;;;19.35;77.57;99842.88;5009607;28;20050;-81
2022/07/06 01:16:41;;;;;;;27.05;20.13;;;;;;;19.43;77.23;99847.94;5010367;28;20422;-80
2022/07/06 01:19:08;;;;;;;27.23;19.67;;;;;;;19.50;77.12;99848.59;5009532;28;20103;-80
2022/07/06 01:21:38;;;;;;;22.33;16.85;;;;;;;19.56;76.38;99836.00;5009446;28;20064;-81
2022/07/06 01:24:05;;;;;;;22.92;16.80;;;;;;;19.63;76.02;99848.09;5011216;28;20099;-80
2022/07/06 01:26:32;;;;;;;22.33;15.63;;;;;;;19.56;75.56;99819.25;5010680;28;20057;-80
2022/07/06 01:29:00;;;;;;;25.80;17.10;;;;;;;19.74;74.76;99825.72;5009673;28;20212;-79
2022/07/06 01:31:27;;;;;;;26.58;17.40;;;;;;;19.89;74.85;99843.72;5010735;28;20088;-80
2022/07/06 01:33:56;;;;;;;28.90;19.75;;;;;;;20.00;74.55;99835.38;5010813;28;20057;-81
2022/07/06 01:36:24;;;;;;;26.33;17.73;;;;;;;20.03;73.90;99832.63;5010757;28;20050;-81
2022/07/06 01:38:53;;;;;;;24.05;17.35;;;;;;;20.18;73.53;99842.69;5010024;28;20133;-80
2022/07/06 01:41:21;;;;;;;26.90;17.95;;;;;;;20.27;73.55;99841.47;5012145;28;20065;-80
2022/07/06 01:43:48;;;;;;;26.75;18.38;;;;;;;20.39;72.94;99834.84;5010007;28;20053;-80
2022/07/06 01:46:16;;;;;;;26.48;19.35;;;;;;;20.43;72.62;99829.38;5008841;28;20054;-81
2022/07/06 01:48:43;;;;;;;29.02;20.52;;;;;;;20.54;72.39;99842.25;5009058;28;20061;-81
2022/07/06 01:51:11;;;;;;;26.27;19.70;;;;;;;20.55;72.30;99838.66;5010570;28;20054;-81
2022/07/06 01:53:42;;;;;;;29.38;19.30;;;;;;;20.67;72.03;99837.34;5010874;28;20079;-81
2022/07/06 01:56:10;;;;;;;24.23;19.40;;;;;;;20.73;71.61;99820.31;4993019;28;20054;-81
2022/07/06 01:58:38;;;;;;;29.75;19.70;;;;;;;20.89;71.31;99840.03;5009006;28;20431;-81
2022/07/06 02:01:14;;;;;;;27.13;19.83;;;;;;;20.93;70.89;99843.44;5010231;28;20085;-80
2022/07/06 02:03:42;;;;;;;29.58;19.85;;;;;;;20.99;70.74;99844.06;5010414;28;20054;-80
2022/07/06 02:06:10;;;;;;;25.90;19.83;;;;;;;21.29;70.01;99843.75;5009369;28;20136;-82
2022/07/06 02:08:39;;;;;;;23.55;19.38;;;;;;;22.01;67.51;99846.03;5009293;28;20046;-81
2022/07/06 02:11:08;;;;;;;24.60;19.33;;;;;;;22.73;64.84;99828.59;5011016;28;20054;-80
2022/07/06 02:13:38;;;;;;;24.42;17.63;;;;;;;23.94;60.59;99819.09;5043163;28;20045;-81
2022/07/06 02:16:27;;;;;;;23.20;17.58;;;;;;;25.60;56.37;99843.72;5024079;28;20057;-81
2022/07/06 02:18:56;;;;;;;26.35;17.90;;;;;;;26.82;52.87;99837.19;5043292;28;20076;-80
2022/07/06 02:21:23;;;;;;;22.08;17.23;;;;;;;27.70;50.22;99845.69;5012494;28;20057;-82
2022/07/06 02:23:50;;;;;;;22.85;18.17;;;;;;;28.64;47.65;99831.13;5010761;28;20062;-81
2022/07/06 02:26:17;;;;;;;22.30;17.75;;;;;;;29.07;46.35;99827.97;5009276;28;20074;-82
2022/07/06 02:28:47;;;;;;;22.40;18.42;;;;;;;29.79;44.68;99839.59;4992999;28;20057;-81
2022/07/06 02:31:15;;;;;;;21.25;18.38;;;;;;;29.53;44.71;99836.16;5011611;28;20057;-81
2022/07/06 02:33:44;;;;;;;23.58;18.58;;;;;;;28.28;47.25;99830.06;5012527;28;20395;-81
2022/07/06 02:36:12;;;;;;;24.25;18.70;;;;;;;28.15;47.71;99838.13;5012517;28;20050;-81
2022/07/06 02:38:41;;;;;;;21.40;17.70;;;;;;;29.59;44.67;99833.00;5012181;28;20136;-80
2022/07/06 02:41:09;;;;;;;22.25;17.63;;;;;;;29.75;43.96;99850.69;5012998;28;20145;-80
2022/07/06 02:43:39;;;;;;;24.38;18.58;;;;;;;29.09;45.49;99837.69;5013978;28;20053;-80
2022/07/06 02:46:06;;;;;;;23.38;18.90;;;;;;;29.18;44.98;99825.38;5012386;28;20057;-81
2022/07/06 02:48:34;;;;;;;24.33;18.73;;;;;;;30.31;42.60;99828.41;5011675;28;20118;-80
2022/07/06 02:51:01;;;;;;;23.35;19.50;;;;;;;31.37;40.05;99833.28;5011860;28;20054;-81
2022/07/06 02:53:29;;;;;;;24.17;19.40;;;;;;;31.78;39.19;99837.03;5011523;28;20197;-80
2022/07/06 02:55:56;;;;;;;21.27;18.35;;;;;;;31.62;39.49;99842.88;5011727;28;20050;-80
2022/07/06 02:58:24;;;;;;;20.85;18.17;;;;;;;32.61;38.11;99844.22;5011908;28;20098;-82
2022/07/06 03:00:52;;;;;;;21.67;18.38;;;;;;;34.64;34.10;99849.75;5011660;28;20061;-82
2022/07/06 03:03:19;;;;;;;21.33;17.63;;;;;;;36.37;31.60;99851.38;5011657;28;20058;-81
2022/07/06 03:05:48;;;;;;;20.70;17.92;;;;;;;37.62;29.38;99847.03;5011236;28;20404;-81
2022/07/06 03:08:18;;;;;;;20.45;18.30;;;;;;;38.11;28.60;99849.75;5011356;28;20511;-81
2022/07/06 03:10:45;;;;;;;20.13;18.00;;;;;;;38.49;28.11;99848.16;5012785;28;20064;-81
2022/07/06 03:13:12;;;;;;;21.77;19.38;;;;;;;39.05;26.78;99864.44;5013248;28;20061;-81
2022/07/06 03:15:40;;;;;;;23.02;20.48;;;;;;;38.49;27.79;99845.41;5013302;28;20075;-81
2022/07/06 03:18:08;;;;;;;22.00;19.15;;;;;;;37.74;28.24;99850.28;5011895;28;20045;-81
2022/07/06 03:20:36;;;;;;;23.55;19.50;;;;;;;36.07;30.69;99837.25;5012830;28;20049;-82
2022/07/06 03:23:06;;;;;;;25.65;20.35;;;;;;;33.76;34.38;99807.63;5012440;28;20054;-81
2022/07/06 03:25:34;;;;;;;26.10;20.37;;;;;;;32.25;37.43;99834.78;5017525;28;20503;-83
2022/07/06 03:28:01;;;;;;;23.65;19.25;;;;;;;32.42;37.08;99811.69;5028442;28;20121;-80
2022/07/06 03:30:28;;;;;;;21.55;19.08;;;;;;;33.96;34.59;99832.81;5036598;28;20083;-81
2022/07/06 03:32:57;;;;;;;25.30;19.52;;;;;;;35.77;31.57;99836.69;5034403;28;20034;-81
2022/07/06 03:35:26;;;;;;;22.08;18.58;;;;;;;37.72;28.97;99841.44;5018081;28;20491;-82
2022/07/06 03:37:54;;;;;;;22.13;19.00;;;;;;;39.23;26.63;99830.53;5012674;28;20058;-82
2022/07/06 03:40:24;;;;;;;19.83;17.73;;;;;;;40.31;25.29;99832.19;5011468;28;20454;-81
2022/07/06 03:42:51;;;;;;;20.92;18.25;;;;;;;41.40;23.92;99826.78;5010727;28;20046;-81
2022/07/06 03:45:20;;;;;;;21.10;18.90;;;;;;;41.99;23.07;99825.66;5012642;28;20467;-80
2022/07/06 03:47:48;;;;;;;21.30;19.00;;;;;;;41.75;23.41;99810.44;5011806;28;20503;-83
2022/07/06 03:50:15;;;;;;;20.80;18.70;;;;;;;42.01;23.26;99820.78;5028286;28;20110;-82
2022/07/06 03:52:42;;;;;;;20.75;18.38;;;;;;;42.64;22.36;99814.41;5011821;28;20054;-82
2022/07/06 03:55:11;;;;;;;22.70;18.75;;;;;;;43.34;21.68;99824.13;5010819;28;20058;-83
2022/07/06 03:57:46;;;;;;;21.15;18.25;;;;;;;43.95;20.72;99816.78;5010466;28;20419;-83
2022/07/06 04:00:17;;;;;;;21.80;19.02;;;;;;;44.15;20.35;99814.84;5011114;28;20049;-83
2022/07/06 04:02:52;;;;;;;21.20;18.58;;;;;;;44.31;20.43;99810.75;5010761;28;20098;-83
2022/07/06 04:05:23;;;;;;;20.85;18.67;;;;;;;44.48;20.13;99835.94;5010795;28;20050;-83
2022/07/06 04:07:53;;;;;;;20.17;18.08;;;;;;;44.74;19.70;99829.47;5010508;28;20058;-85
2022/07/06 04:10:24;;;;;;;21.27;18.65;;;;;;;45.18;19.42;99816.75;5043909;28;20053;-85
2022/07/06 04:12:54;;;;;;;21.08;18.83;;;;;;;45.06;19.65;99817.69;5010490;28;20495;-84
2022/07/06 04:15:21;;;;;;;22.63;19.05;;;;;;;44.75;19.72;99824.81;5014204;28;20057;-84
2022/07/06 04:17:51;;;;;;;21.73;19.50;;;;;;;44.08;20.56;99816.78;5048434;28;20529;-85
2022/07/06 04:20:25;;;;;;;24.40;20.88;;;;;;;43.06;21.22;99817.94;5044018;28;20045;-81
2022/07/06 04:22:53;;;;;;;22.52;19.77;;;;;;;40.59;24.21;99824.13;5010637;28;20049;-80
2022/07/06 04:25:23;;;;;;;24.63;20.90;;;;;;;38.08;27.58;99826.41;5010620;28;20049;-81
2022/07/06 04:27:50;;;;;;;24.08;20.45;;;;;;;36.24;30.40;99828.19;5043444;28;20064;-81
2022/07/06 04:30:17;;;;;;;26.00;20.73;;;;;;;34.98;32.37;99827.44;5010217;28;20054;-82
2022/07/06 04:32:44;;;;;;;23.58;20.95;;;;;;;34.19;34.01;99825.25;5010101;28;20050;-81
2022/07/06 04:35:13;;;;;;;22.50;20.07;;;;;;;33.31;35.95;99829.88;5044177;27;20194;-84
2022/07/06 04:37:42;;;;;;;25.40;21.52;;;;;;;33.17;36.11;99818.47;5030650;28;20057;-81
2022/07/06 04:40:09;;;;;;;25.00;21.27;;;;;;;32.95;36.70;99822.22;5032527;28;20057;-81
2022/07/06 04:42:44;;;;;;;23.52;21.00;;;;;;;32.59;37.38;99819.19;5031131;28;20395;-82
2022/07/06 04:45:12;;;;;;;27.73;22.92;;;;;;;32.42;37.65;99826.06;5032010;28;20140;-82
2022/07/06 04:47:39;;;;;;;23.80;21.25;;;;;;;32.17;38.88;99821.09;5030614;28;20059;-83
2022/07/06 04:50:07;;;;;;;26.83;21.02;;;;;;;31.98;39.15;99824.53;5031235;28;20056;-81
2022/07/06 04:52:34;;;;;;;23.25;20.70;;;;;;;31.62;40.14;99814.06;5030359;28;20075;-82
2022/07/06 04:55:04;;;;;;;26.48;21.58;;;;;;;31.25;40.81;99827.06;5029090;28;20480;-81
2022/07/06 04:57:33;;;;;;;24.73;21.02;;;;;;;30.70;41.20;99800.09;5013804;28;20092;-83
2022/07/06 05:00:03;;;;;;;25.80;21.73;;;;;;;30.60;42.04;99823.41;5029292;28;20049;-82
2022/07/06 05:02:31;;;;;;;28.42;20.95;;;;;;;30.64;42.54;99830.25;5029197;28;20081;-83
2022/07/06 05:04:58;;;;;;;24.35;21.45;;;;;;;30.65;42.81;99834.66;5028848;28;20047;-80
2022/07/06 05:07:29;;;;;;;22.95;20.45;;;;;;;30.65;42.61;99829.25;5030970;28;20089;-81
2022/07/06 05:09:56;;;;;;;26.20;22.02;;;;;;;30.74;42.53;99831.22;5030457;28;20078;-84
2022/07/06 05:12:26;;;;;;;26.33;21.23;;;;;;;30.59;42.63;99814.47;5029927;28;20045;-83
2022/07/06 05:14:53;;;;;;;24.98;21.48;;;;;;;30.38;43.54;99817.03;5012898;28;20045;-81
2022/07/06 05:17:21;;;;;;;26.80;21.33;;;;;;;30.30;44.15;99813.25;5029607;28;20061;-83
2022/07/06 05:19:57;;;;;;;27.67;21.52;;;;;;;30.18;43.90;99790.81;5029986;28;20045;-83
2022/07/06 05:22:24;;;;;;;26.73;22.17;;;;;;;30.16;44.36;99812.47;5031513;28;20049;-83
2022/07/06 05:24:52;;;;;;;25.10;22.00;;;;;;;30.12;44.23;99812.84;5029646;28;20060;-86
2022/07/06 05:27:20;;;;;;;24.10;20.77;;;;;;;30.01;44.30;99790.31;5029048;28;20098;-80
2022/07/06 05:29:48;;;;;;;24.80;22.15;;;;;;;30.23;44.87;99809.31;5030174;28;20099;-82
2022/07/06 05:32:15;;;;;;;29.60;21.77;;;;;;;30.18;44.33;99801.59;5028901;28;20077;-81
2022/07/06 05:34:43;;;;;;;28.05;21.50;;;;;;;30.28;44.21;99804.38;5029541;28;20049;-82
2022/07/06 05:37:13;;;;;;;26.00;21.48;;;;;;;30.37;43.92;99785.69;5027985;28;20061;-81
2022/07/06 05:39:45;;;;;;;29.35;21.92;;;;;;;30.51;44.16;99795.34;5028965;28;20057;-81
2022/07/06 05:42:13;;;;;;;26.90;21.60;;;;;;;30.60;44.51;99809.91;5062265;28;20053;-81
2022/07/06 05:44:44;;;;;;;28.48;22.45;;;;;;;30.61;43.66;99809.81;5028608;28;20082;-81
2022/07/06 05:50:14;;;;;;;24.65;19.90;;;;;;;30.50;43.46;99804.44;5028672;28;20152;-80
2022/07/06 05:53:01;;;;;;;24.92;19.35;;;;;;;30.57;43.19;99797.56;5030230;28;20079;-81
2022/07/06 05:55:41;;;;;;;22.83;20.10;;;;;;;30.73;43.00;99802.53;5029534;28;20057;-81
2022/07/06 05:58:08;;;;;;;26.23;20.23;;;;;;;30.77;42.58;99812.09;5029979;28;20057;-80
2022/07/06 06:00:37;;;;;;;24.10;20.33;;;;;;;30.65;43.02;99814.94;5028679;28;20529;-81
2022/07/06 06:03:11;;;;;;;25.40;20.50;;;;;;;30.49;43.48;99796.47;5028714;28;20056;-81
2022/07/06 06:05:39;;;;;;;23.90;21.00;;;;;;;30.68;42.71;99814.69;5028579;28;20064;-80
2022/07/06 06:08:08;;;;;;;25.00;20.27;;;;;;;30.74;42.49;99804.28;5029694;28;20057;-81
2022/07/06 06:10:36;;;;;;;29.73;21.35;;;;;;;30.83;43.22;99818.84;5028877;28;20050;-80
2022/07/06 06:13:07;;;;;;;29.13;24.35;;;;;;;30.86;42.77;99806.94;5028538;28;20102;-80
2022/07/06 06:15:35;;;;;;;30.25;26.92;;;;;;;30.83;42.52;99805.34;5061672;28;20064;-81
2022/07/06 06:18:04;;;;;;;32.70;26.40;;;;;;;30.69;43.19;99786.75;5028376;28;20109;-81
2022/07/06 06:20:31;;;;;;;33.38;27.65;;;;;;;30.92;42.87;99806.47;5029607;28;20054;-81
2022/07/06 06:22:59;;;;;;;36.92;28.88;;;;;;;30.96;42.79;99799.84;5029401;28;20060;-80
2022/07/06 06:25:37;;;;;;;35.03;28.57;;;;;;;30.96;42.53;99803.38;5030108;28;20132;-80
2022/07/06 06:28:08;;;;;;;31.20;27.85;;;;;;;30.98;42.41;99803.25;5030124;28;20045;-80
2022/07/06 06:30:37;;;;;;;32.45;27.38;;;;;;;30.76;42.65;99796.91;5029304;28;20050;-81
2022/07/06 06:33:08;;;;;;;33.35;27.55;;;;;;;30.48;43.85;99801.00;5029206;28;20054;-80
2022/07/06 06:35:36;;;;;;;34.15;27.13;;;;;;;30.52;43.95;99791.66;5029485;28;20060;-81
2022/07/06 06:38:04;;;;;;;30.90;26.90;;;;;;;30.79;43.50;99804.75;5029273;28;20053;-80
2022/07/06 06:40:31;;;;;;;32.92;27.10;;;;;;;30.88;42.50;99802.31;5029188;28;20418;-80
2022/07/06 06:42:58;;;;;;;33.80;25.55;;;;;;;30.68;41.82;99795.81;5029260;28;20054;-80
2022/07/06 06:45:25;;;;;;;32.15;27.38;;;;;;;30.62;42.09;99791.78;5028122;28;20056;-81
2022/07/06 06:47:52;;;;;;;29.80;26.50;;;;;;;30.68;42.05;99802.06;5060820;28;20114;-81
2022/07/06 06:50:20;;;;;;;29.05;24.88;;;;;;;30.70;42.23;99786.63;5029635;28;20062;-81
2022/07/06 06:52:47;;;;;;;29.63;25.75;;;;;;;30.76;42.39;99779.84;5027777;28;20058;-81
2022/07/06 06:55:15;;;;;;;31.30;26.40;;;;;;;30.76;42.31;99782.56;5027978;28;20075;-80
2022/07/06 06:57:42;;;;;;;29.58;25.75;;;;;;;30.80;43.16;99800.19;5030127;28;20057;-81
2022/07/06 07:00:09;;;;;;;28.73;25.35;;;;;;;30.67;43.39;99794.09;5029437;28;20064;-82
2022/07/06 07:02:37;;;;;;;27.83;23.88;;;;;;;30.73;43.54;99789.06;5029333;28;20085;-81
2022/07/06 07:05:05;;;;;;;27.92;22.42;;;;;;;30.73;42.95;99785.50;5027486;28;20061;-80
2022/07/06 07:07:36;;;;;;;24.02;21.02;;;;;;;30.66;43.02;99792.41;5029149;28;20061;-81
2022/07/06 07:10:05;;;;;;;24.63;18.83;;;;;;;30.80;42.99;99802.88;5027589;28;20061;-82
2022/07/06 07:12:33;;;;;;;22.40;19.48;;;;;;;30.75;42.50;99784.41;5028906;28;20089;-81
2022/07/06 07:15:00;;;;;;;22.30;15.88;;;;;;;30.76;42.68;99791.53;5028898;28;20097;-81
2022/07/06 07:17:28;;;;;;;19.80;15.40;;;;;;;30.66;42.42;99795.94;5031496;28;20081;-79
2022/07/06 07:19:57;;;;;;;19.80;16.05;;;;;;;30.50;42.17;99764.00;5032391;28;20045;-81
2022/07/06 07:22:24;;;;;;;18.33;15.15;;;;;;;30.50;42.81;99790.06;5031972;28;20098;-81
2022/07/06 07:24:51;;;;;;;19.48;15.77;;;;;;;30.42;42.65;99778.09;5031698;28;20414;-81
2022/07/06 07:27:18;;;;;;;17.67;14.52;;;;;;;30.37;42.95;99760.56;5030635;28;20045;-81
2022/07/06 07:29:45;;;;;;;15.43;13.00;;;;;;;30.61;42.60;99785.53;5031771;28;20061;-80
2022/07/06 07:32:12;;;;;;;15.43;13.77;;;;;;;30.61;41.93;99779.31;5030671;28;20058;-81
2022/07/06 07:34:39;;;;;;;13.52;11.82;;;;;;;30.62;40.37;99781.00;5032507;28;20060;-81
2022/07/06 07:37:06;;;;;;;12.82;10.93;;;;;;;30.41;40.21;99765.59;5031647;28;20053;-80
2022/07/06 07:39:33;;;;;;;14.55;11.82;;;;;;;30.29;40.25;99763.91;5031860;28;20049;-80
2022/07/06 07:42:00;;;;;;;16.13;12.80;;;;;;;30.53;40.96;99787.16;5029614;28;20061;-81
2022/07/06 07:44:28;;;;;;;21.17;13.57;;;;;;;30.54;41.54;99786.16;5031997;28;20057;-80
2022/07/06 07:46:55;;;;;;;20.00;13.98;;;;;;;30.83;41.78;99790.03;5031396;28;20567;-81
2022/07/06 07:49:22;;;;;;;21.10;15.18;;;;;;;30.98;41.80;99766.34;5031270;28;20057;-81
2022/07/06 07:51:49;;;;;;;15.27;12.30;;;;;;;30.97;40.51;99790.75;5032102;28;20089;-81
2022/07/06 07:54:17;;;;;;;14.30;11.63;;;;;;;30.89;40.50;99790.53;5031938;28;20056;-80
2022/07/06 07:56:44;;;;;;;16.58;11.80;;;;;;;30.79;40.76;99785.00;5031629;28;20106;-80
2022/07/06 07:59:11;;;;;;;16.92;11.63;;;;;;;30.81;40.02;99792.00;5031446;28;20050;-80
2022/07/06 08:01:40;;;;;;;15.73;11.70;;;;;;;30.95;39.65;99785.47;5063924;28;20050;-81
2022/07/06 08:04:07;;;;;;;17.75;12.30;;;;;;;31.21;39.49;99790.53;5030607;28;20042;-80
2022/07/06 08:06:34;;;;;;;17.63;12.40;;;;;;;31.22;39.88;99785.03;5032203;28;20057;-81
2022/07/06 08:09:03;;;;;;;22.27;12.48;;;;;;;31.02;40.16;99791.25;5031502;28;20106;-82
2022/07/06 08:11:30;;;;;;;18.98;12.65;;;;;;;30.90;40.45;99789.56;5030482;28;20057;-80
2022/07/06 08:13:58;;;;;;;40.33;14.98;;;;;;;30.90;41.16;99794.94;5031382;28;20056;-80
2022/07/06 08:16:25;;;;;;;36.20;14.85;;;;;;;31.09;40.59;99778.94;5030296;28;20049;-81
2022/07/06 08:18:52;;;;;;;70.15;19.58;;;;;;;31.10;40.80;99780.66;5031389;28;20060;-81
2022/07/06 08:21:19;;;;;;;31.83;15.18;;;;;;;30.84;41.09;99790.88;5031633;28;20045;-82
2022/07/06 08:23:52;;;;;;;15.93;13.50;;;;;;;30.59;41.37;99781.25;5031640;28;20494;-80
2022/07/06 08:26:19;;;;;;;15.55;13.15;;;;;;;30.33;41.97;99794.13;5031147;28;20045;-82
2022/07/06 08:28:46;;;;;;;16.27;12.65;;;;;;;30.31;41.43;99772.72;5030275;28;20081;-81
2022/07/06 08:31:13;;;;;;;17.17;13.38;;;;;;;30.50;41.92;99776.59;5030942;28;20110;-80
2022/07/06 08:34:01;;;;;;;17.33;12.48;;;;;;;30.72;41.82;99787.38;5029979;28;20458;-81
2022/07/06 08:36:29;;;;;;;31.65;14.70;;;;;;;30.65;41.22;99779.88;5031004;28;20110;-81
2022/07/06 08:38:56;;;;;;;19.85;13.68;;;;;;;30.35;42.19;99771.50;5031416;28;20270;-80
2022/07/06 08:41:26;;;;;;;18.17;13.57;;;;;;;30.05;42.79;99788.25;5026120;28;20465;-80
2022/07/06 08:43:53;;;;;;;18.08;13.90;;;;;;;30.21;43.17;99750.16;5023560;28;20072;-83
2022/07/06 08:46:21;;;;;;;15.65;13.95;;;;;;;30.30;42.36;99759.38;5029883;28;20054;-83
2022/07/06 08:48:50;;;;;;;15.13;13.70;;;;;;;30.66;41.98;99782.47;5029298;28;20049;-83
2022/07/06 08:51:20;;;;;;;17.48;13.27;;;;;;;30.92;41.07;99777.66;5029547;28;20057;-81
2022/07/06 08:53:57;;;;;;;17.55;13.98;;;;;;;30.90;41.42;99778.78;5031146;28;20506;-82
2022/07/06 08:56:25;;;;;;;25.93;15.03;;;;;;;30.67;41.99;99775.22;5030994;28;20061;-81
2022/07/06 08:58:55;;;;;;;41.50;15.02;;;;;;;30.57;41.21;99762.50;5036348;28;20137;-82
2022/07/06 09:01:23;;;;;;;15.60;12.55;;;;;;;30.66;41.18;99765.44;5034590;28;20053;-82
2022/07/06 09:03:50;;;;;;;24.13;14.00;;;;;;;30.57;41.41;99756.28;5052742;28;20049;-83
2022/07/06 09:06:27;;;;;;;16.60;13.23;;;;;;;30.78;41.10;99765.28;5049224;28;20053;-81
2022/07/06 09:08:57;;;;;;;17.17;13.25;;;;;;;30.71;41.45;99764.06;5034331;28;20058;-81
2022/07/06 09:11:27;;;;;;;29.30;16.08;;;;;;;30.90;41.63;99773.38;5044186;28;20137;-83
2022/07/06 09:13:55;;;;;;;28.73;14.40;;;;;;;30.87;42.20;99761.00;5012365;28;20076;-82
2022/07/06 09:16:32;;;;;;;19.73;13.90;;;;;;;30.94;42.30;99756.81;5011754;28;20109;-84
2022/07/06 09:19:07;;;;;;;32.53;15.93;;;;;;;31.11;42.41;99763.50;5009874;28;20057;-82
2022/07/06 09:21:36;;;;;;;23.80;15.13;;;;;;;31.33;41.52;99776.03;5009535;28;20054;-82
2022/07/06 09:24:12;;;;;;;23.35;14.45;;;;;;;31.63;40.99;99756.38;5011001;28;20060;-83
2022/07/06 09:26:41;;;;;;;23.73;16.13;;;;;;;32.07;40.33;99758.91;5011048;28;20054;-82
2022/07/06 09:29:08;;;;;;;23.35;14.95;;;;;;;32.31;39.18;99750.50;5022314;28;20400;-82
2022/07/06 09:31:35;;;;;;;22.05;15.13;;;;;;;32.30;39.56;99747.91;5030417;28;20074;-83
2022/07/06 09:34:06;;;;;;;33.50;15.70;;;;;;;32.15;39.41;99756.38;5030548;28;20063;-82
2022/07/06 09:36:49;;;;;;;16.75;13.18;;;;;;;31.98;39.41;99728.16;5030863;28;20041;-83
2022/07/06 09:39:21;;;;;;;34.15;14.15;;;;;;;32.32;38.80;99746.78;5012988;28;20148;-82
2022/07/06 09:41:51;;;;;;;26.42;14.13;;;;;;;32.24;38.92;99743.91;5030789;28;20049;-82
2022/07/06 09:44:25;;;;;;;20.58;13.45;;;;;;;32.58;38.41;99747.16;5029450;28;20057;-81
2022/07/06 09:46:56;;;;;;;15.98;13.02;;;;;;;32.28;38.27;99742.63;5010591;28;20389;-82
2022/07/06 09:49:24;;;;;;;28.20;13.77;;;;;;;32.28;38.77;99749.91;5010835;28;20069;-82
2022/07/06 09:51:54;;;;;;;17.52;12.38;;;;;;;32.42;38.42;99736.00;5011916;28;20084;-81
2022/07/06 09:54:22;;;;;;;19.02;13.02;;;;;;;32.57;38.14;99734.66;5012590;28;20141;-81
2022/07/06 09:56:51;;;;;;;18.80;12.97;;;;;;;32.78;37.72;99718.31;5010480;28;20050;-83
2022/07/06 09:59:23;;;;;;;18.52;13.20;;;;;;;32.70;36.83;99733.50;5010075;28;20062;-85
2022/07/06 10:01:55;;;;;;;17.33;11.85;;;;;;;32.35;37.32;99737.53;5010125;28;20054;-83
2022/07/06 10:04:25;;;;;;;14.18;12.18;;;;;;;32.17;37.66;99724.69;5010147;28;20065;-82
2022/07/06 10:06:53;;;;;;;16.73;12.52;;;;;;;32.13;37.81;99734.06;5009982;28;20054;-82
2022/07/06 10:09:21;;;;;;;14.27;12.48;;;;;;;32.01;38.17;99729.75;5009894;28;20049;-82
2022/07/06 10:11:53;;;;;;;16.17;13.10;;;;;;;32.15;38.19;99731.22;5010199;28;20057;-82
2022/07/06 10:14:23;;;;;;;19.42;12.27;;;;;;;32.15;38.05;99728.53;5010409;28;20056;-81
2022/07/06 10:16:51;;;;;;;43.80;13.68;;;;;;;32.11;38.49;99717.13;5011452;28;20064;-86
2022/07/06 10:19:21;;;;;;;15.82;12.60;;;;;;;32.00;38.10;99723.47;5009640;28;20119;-82
2022/07/06 10:21:49;;;;;;;14.32;12.82;;;;;;;31.86;38.57;99718.44;5010039;28;20083;-82
2022/07/06 10:24:17;;;;;;;15.90;12.65;;;;;;;31.85;38.66;99705.91;5008211;28;20494;-81
2022/07/06 10:26:48;;;;;;;15.97;13.10;;;;;;;31.83;39.03;99708.72;5009695;28;20062;-82
2022/07/06 10:29:18;;;;;;;14.77;13.07;;;;;;;31.73;39.08;99699.75;5023074;28;20288;-83
2022/07/06 10:31:51;;;;;;;13.80;12.05;;;;;;;31.68;38.76;99703.81;5029864;28;20058;-84
2022/07/06 10:34:19;;;;;;;14.43;12.90;;;;;;;31.53;39.38;99701.47;5028930;28;20578;-82
2022/07/06 10:36:54;;;;;;;14.88;12.68;;;;;;;31.28;39.55;99713.50;5029386;28;20053;-86
2022/07/06 10:42:49;;;;;;;14.90;13.13;;;;;;;31.28;39.49;99709.94;5030840;28;20095;-84
2022/07/06 10:45:28;;;;;;;15.18;12.70;;;;;;;31.30;38.75;99710.66;5042641;28;20053;-82
2022/07/06 10:48:11;;;;;;;;;;;;;;;31.02;39.65;99700.41;5074268;28;20047;-82
2022/07/06 10:50:45;;;;;;;16.55;13.07;;;;;;;31.05;40.00;99690.34;5073139;28;19928;-83
2022/07/06 10:53:17;;;;;;;18.13;13.65;;;;;;;31.25;39.95;99704.81;5032192;28;20507;-83
2022/07/06 10:55:47;;;;;;;19.27;13.10;;;;;;;31.18;40.09;99696.38;5050641;27;20072;-83
2022/07/06 10:58:14;;;;;;;16.05;12.77;;;;;;;31.17;40.45;99700.94;5082840;27;20059;-82
2022/07/06 11:00:49;;;;;;;18.25;15.05;;;;;;;31.02;40.78;99696.84;5079644;27;20047;-83
2022/07/06 11:03:42;;;;;;;15.63;13.80;;;;;;;31.10;40.84;99696.19;5075648;27;20058;-83
2022/07/06 11:06:12;;;;;;;17.45;14.63;;;;;;;31.31;40.78;99697.03;5091159;27;20132;-83
2022/07/06 11:08:51;;;;;;;15.63;13.30;;;;;;;31.44;40.29;99696.88;5081337;27;20076;-82
2022/07/06 11:11:23;;;;;;;20.33;14.40;;;;;;;31.45;40.29;99681.53;5074284;27;20058;-83
2022/07/06 11:13:55;;;;;;;15.48;13.73;;;;;;;31.17;40.71;99698.25;5077707;27;20144;-83
2022/07/06 11:16:38;;;;;;;15.30;13.70;;;;;;;30.96;41.28;99691.97;5081863;27;20100;-83
2022/07/06 11:19:11;;;;;;;14.60;13.02;;;;;;;30.80;41.50;99692.34;5076139;27;20054;-83
2022/07/06 11:21:41;;;;;;;16.83;13.43;;;;;;;30.81;41.97;99686.00;5085362;27;20053;-83
2022/07/06 11:24:11;;;;;;;14.52;13.02;;;;;;;30.77;41.50;99681.84;5080244;27;20062;-83
2022/07/06 11:26:39;;;;;;;15.30;13.70;;;;;;;30.89;41.80;99693.44;5108090;27;20160;-82
2022/07/06 11:29:09;;;;;;;16.63;14.75;;;;;;;30.88;41.90;99699.84;5108660;27;20051;-84
2022/07/06 11:31:37;;;;;;;;;;;;;;;30.52;42.44;99696.50;5137378;27;20053;-82
2022/07/06 11:34:06;;;;;;;17.33;14.43;;;;;;;30.55;43.17;99690.88;5082804;27;19936;-86